Time;durP1;ratioP1;P1;durP2;ratioP2;P2;SDS_P1;SDS_P2;PMS_P1;PMS_P2;Temp;Humidity;BMP_temperature;BMP_pressure;BME280_temperature;BME280_humidity;BME280_pressure;Samples;Min_cycle;Max_cycle;Signal;HPM_P1;HPM_P2
2022/04/19 00:00:55;;;;;;;12.02;7.00;;;;;;;12.11;36.85;101431.81;4965474;28;118759;-77
2022/04/19 00:03:23;;;;;;;11.40;7.30;;;;;;;12.08;37.34;101426.63;4969268;28;124032;-78
2022/04/19 00:05:50;;;;;;;12.65;7.53;;;;;;;12.07;37.18;101424.88;4960171;28;124147;-78
2022/04/19 00:08:18;;;;;;;12.75;7.13;;;;;;;12.05;37.16;101418.78;4958842;28;118929;-78
2022/04/19 00:10:45;;;;;;;12.15;7.28;;;;;;;12.03;37.43;101423.28;4968504;28;120360;-78
2022/04/19 00:13:16;;;;;;;12.52;7.35;;;;;;;12.00;37.33;101420.78;4938749;28;123247;-78
2022/04/19 00:15:44;;;;;;;11.25;7.10;;;;;;;11.98;37.54;101415.53;4956241;28;126545;-78
2022/04/19 00:18:12;;;;;;;9.63;6.47;;;;;;;11.97;37.34;101423.56;4951773;28;120427;-78
2022/04/19 00:20:42;;;;;;;12.38;7.45;;;;;;;11.95;37.64;101414.81;4968722;28;118101;-79
2022/04/19 00:23:12;;;;;;;11.25;7.00;;;;;;;11.92;37.73;101422.88;4962584;28;123757;-78
2022/04/19 00:25:45;;;;;;;10.93;7.40;;;;;;;11.90;37.74;101422.09;4956000;28;124116;-78
2022/04/19 00:28:13;;;;;;;12.10;7.78;;;;;;;11.88;37.56;101419.44;4951295;28;119733;-77
2022/04/19 00:30:42;;;;;;;12.80;7.35;;;;;;;11.84;37.63;101409.91;4930790;28;118139;-78
2022/04/19 00:33:10;;;;;;;12.13;7.35;;;;;;;11.81;37.78;101413.53;4966597;28;123613;-78
2022/04/19 00:35:37;;;;;;;10.63;7.03;;;;;;;11.77;37.84;101406.66;4966527;28;123777;-78
2022/04/19 00:38:05;;;;;;;12.05;7.07;;;;;;;11.75;37.62;101403.16;4960947;28;117938;-78
2022/04/19 00:40:32;;;;;;;12.32;7.53;;;;;;;11.72;37.83;101403.31;4956852;28;118225;-78
2022/04/19 00:43:01;;;;;;;12.77;7.50;;;;;;;11.67;38.08;101399.97;4963160;28;124404;-79
2022/04/19 00:45:31;;;;;;;12.02;7.50;;;;;;;11.65;38.09;101401.81;4954074;28;124768;-77
2022/04/19 00:47:58;;;;;;;11.40;6.78;;;;;;;11.63;38.01;101404.53;4955024;28;118625;-78
2022/04/19 00:50:27;;;;;;;10.68;7.40;;;;;;;11.63;38.33;101393.06;4951847;28;119168;-78
2022/04/19 00:52:55;;;;;;;12.82;7.15;;;;;;;11.61;38.23;101400.22;4959585;28;123755;-79
2022/04/19 00:55:25;;;;;;;13.10;7.60;;;;;;;11.57;38.32;101404.78;4965373;28;123060;-77
2022/04/19 00:57:53;;;;;;;11.15;7.25;;;;;;;11.54;38.58;101401.38;4956398;28;119628;-78
2022/04/19 01:00:22;;;;;;;15.27;8.20;;;;;;;11.48;38.56;101400.69;4953541;28;119304;-78
2022/04/19 01:03:01;;;;;;;10.63;7.20;;;;;;;11.45;38.54;101400.84;4971490;28;123767;-78
2022/04/19 01:05:34;;;;;;;10.82;7.60;;;;;;;11.40;38.61;101402.81;4968970;28;123304;-78
2022/04/19 01:08:01;;;;;;;11.40;7.82;;;;;;;11.36;38.71;101406.50;4966144;28;119377;-78
2022/04/19 01:10:33;;;;;;;12.75;7.93;;;;;;;11.34;38.93;101407.47;4969961;28;118693;-78
2022/04/19 01:13:19;;;;;;;13.80;7.63;;;;;;;11.31;38.47;101405.81;4958100;28;123098;-78
2022/04/19 01:15:51;;;;;;;11.35;7.05;;;;;;;11.27;38.82;101401.56;4954760;28;124145;-78
2022/04/19 01:18:20;;;;;;;11.93;7.55;;;;;;;11.26;38.62;101405.13;4955192;28;118920;-78
2022/04/19 01:20:49;;;;;;;11.85;7.45;;;;;;;11.25;38.93;101408.72;4952388;28;118172;-78
2022/04/19 01:23:20;;;;;;;13.35;7.57;;;;;;;11.25;38.99;101403.41;4941322;28;123934;-78
2022/04/19 01:25:48;;;;;;;10.52;7.43;;;;;;;11.23;38.94;101398.16;4954576;28;124150;-77
2022/04/19 01:28:18;;;;;;;10.80;7.13;;;;;;;11.23;38.92;101407.91;4955078;28;117523;-78
2022/04/19 01:30:49;;;;;;;13.48;7.25;;;;;;;11.21;38.87;101396.50;4952619;28;118852;-78
2022/04/19 01:33:17;;;;;;;12.02;7.22;;;;;;;11.20;39.09;101397.41;4966813;28;124425;-78
2022/04/19 01:35:46;;;;;;;9.98;6.80;;;;;;;11.20;39.10;101405.38;4967808;28;122082;-77
2022/04/19 01:38:15;;;;;;;11.60;7.32;;;;;;;11.18;38.94;101401.91;4962339;28;118530;-78
2022/04/19 01:40:43;;;;;;;11.60;7.50;;;;;;;11.18;39.33;101404.56;4953426;28;118519;-77
2022/04/19 01:43:17;;;;;;;11.18;7.28;;;;;;;11.18;39.31;101404.56;4961013;28;124157;-78
2022/04/19 01:45:58;;;;;;;12.82;7.75;;;;;;;11.18;39.21;101407.22;4953069;28;123341;-78
2022/04/19 01:48:26;;;;;;;10.23;6.35;;;;;;;11.16;39.34;101401.13;4942562;28;119554;-77
2022/04/19 01:50:53;;;;;;;13.95;7.70;;;;;;;11.15;39.34;101396.72;4966544;28;119609;-77
2022/04/19 01:53:21;;;;;;;11.25;7.00;;;;;;;11.12;39.37;101391.56;4975231;28;123234;-77
2022/04/19 01:55:49;;;;;;;10.18;7.15;;;;;;;11.12;39.30;101391.56;4968875;28;123069;-78
2022/04/19 01:58:39;;;;;;;10.90;7.15;;;;;;;11.09;39.30;101393.41;4952731;28;119532;-77
2022/04/19 02:01:09;;;;;;;12.50;6.82;;;;;;;11.08;39.03;101381.06;4953586;28;118207;-78
2022/04/19 02:03:36;;;;;;;11.00;7.28;;;;;;;11.08;39.47;101383.72;4965985;28;123710;-77
2022/04/19 02:06:09;;;;;;;11.45;7.10;;;;;;;11.04;39.74;101384.75;4954923;28;126355;-78
2022/04/19 02:08:38;;;;;;;11.65;7.38;;;;;;;11.03;39.50;101376.84;4964103;28;119285;-77
2022/04/19 02:11:10;;;;;;;12.73;7.55;;;;;;;11.02;39.48;101381.31;4952317;28;118447;-77
2022/04/19 02:13:37;;;;;;;13.20;7.18;;;;;;;11.00;39.34;101382.25;4964116;28;123570;-78
2022/04/19 02:16:14;;;;;;;13.93;7.60;;;;;;;10.99;39.64;101386.72;4950740;28;122044;-77
2022/04/19 02:18:41;;;;;;;11.93;7.05;;;;;;;10.97;39.29;101377.97;4969660;28;118955;-78
2022/04/19 02:21:09;;;;;;;11.50;7.38;;;;;;;10.97;39.60;101388.56;4955078;28;119089;-78
2022/04/19 02:23:36;;;;;;;11.02;6.82;;;;;;;10.93;39.37;101380.78;4953403;28;123543;-78
2022/04/19 02:26:04;;;;;;;13.48;7.40;;;;;;;10.90;39.44;101379.09;4951932;28;123782;-78
2022/04/19 02:28:32;;;;;;;9.57;6.40;;;;;;;10.87;39.72;101385.41;4950881;28;118755;-78
2022/04/19 02:31:22;;;;;;;11.93;7.30;;;;;;;10.85;39.76;101378.41;4951659;28;118880;-78
2022/04/19 02:33:58;;;;;;;11.20;6.85;;;;;;;10.82;39.83;101373.25;4951920;28;123366;-78
2022/04/19 02:36:26;;;;;;;11.48;7.13;;;;;;;10.80;39.75;101375.09;4945097;28;126516;-78
2022/04/19 02:38:53;;;;;;;14.98;7.57;;;;;;;10.79;40.05;101373.34;4958961;28;120539;-78
2022/04/19 02:41:21;;;;;;;10.65;6.82;;;;;;;10.78;39.64;101366.34;4955562;28;119614;-78
2022/04/19 02:43:53;;;;;;;11.00;6.88;;;;;;;10.76;39.87;101368.19;4955820;28;123597;-77
2022/04/19 02:46:21;;;;;;;11.93;6.93;;;;;;;10.75;39.94;101367.28;4938439;28;123548;-78
2022/04/19 02:48:53;;;;;;;12.82;7.05;;;;;;;10.73;40.09;101365.63;4971349;28;118977;-78
2022/04/19 02:51:20;;;;;;;11.65;7.13;;;;;;;10.70;40.04;101364.81;4957261;28;119378;-77
2022/04/19 02:53:47;;;;;;;13.18;6.85;;;;;;;10.68;40.13;101366.69;4947747;28;123576;-78
2022/04/19 02:56:14;;;;;;;10.48;6.75;;;;;;;10.65;40.02;101361.47;4953974;28;123902;-77
2022/04/19 02:58:44;;;;;;;10.48;6.50;;;;;;;10.63;40.08;101363.31;4964292;28;118002;-77
2022/04/19 03:01:12;;;;;;;9.52;6.47;;;;;;;10.62;40.06;101368.66;4950935;28;119675;-77
2022/04/19 03:03:39;;;;;;;10.63;6.85;;;;;;;10.58;40.50;101365.28;4934416;28;123231;-77
2022/04/19 03:06:10;;;;;;;12.50;6.43;;;;;;;10.55;40.44;101370.69;4940578;28;123202;-78
2022/04/19 03:08:38;;;;;;;11.85;6.55;;;;;;;10.52;40.37;101365.50;4972859;28;118333;-77
2022/04/19 03:11:06;;;;;;;10.88;6.32;;;;;;;10.48;40.46;101363.88;4958090;28;119187;-77
2022/04/19 03:13:33;;;;;;;10.02;6.13;;;;;;;10.44;40.48;101356.97;4959251;28;124014;-78
2022/04/19 03:16:02;;;;;;;9.82;6.50;;;;;;;10.40;40.56;101361.53;4957299;28;123219;-79
2022/04/19 03:18:31;;;;;;;9.82;6.00;;;;;;;10.39;40.38;101358.94;4975974;28;118554;-78
2022/04/19 03:20:58;;;;;;;9.35;6.15;;;;;;;10.35;40.53;101354.66;4953632;28;118401;-78
2022/04/19 03:29:04;;;;;;;12.07;6.68;;;;;;;10.25;40.64;101357.59;4961104;28;119748;-78
2022/04/19 03:31:34;;;;;;;8.82;6.25;;;;;;;10.22;40.54;101368.28;4960745;28;119362;-78
2022/04/19 03:34:03;;;;;;;13.07;6.38;;;;;;;10.18;40.54;101356.09;4960123;28;123746;-79
2022/04/19 03:36:31;;;;;;;14.05;7.10;;;;;;;10.16;40.44;101362.38;4956684;28;99939;-78
2022/04/19 03:38:59;;;;;;;10.90;6.72;;;;;;;10.13;40.74;101365.97;4952494;28;119474;-77
2022/04/19 03:41:27;;;;;;;12.05;6.50;;;;;;;10.10;40.93;101358.16;4955537;28;118801;-78
2022/04/19 03:43:55;;;;;;;10.80;6.93;;;;;;;10.09;40.72;101364.34;4953445;28;123928;-77
2022/04/19 03:46:22;;;;;;;12.43;6.53;;;;;;;10.06;41.08;101361.81;4960383;28;123973;-78
2022/04/19 03:48:49;;;;;;;15.07;7.30;;;;;;;10.05;41.17;101360.06;4955427;28;119135;-77
2022/04/19 03:51:17;;;;;;;16.88;7.10;;;;;;;10.03;41.04;101361.91;4977108;28;119155;-77
2022/04/19 03:53:46;;;;;;;10.90;7.05;;;;;;;10.00;40.97;101362.00;4953092;28;123174;-78
2022/04/19 03:56:14;;;;;;;13.43;7.05;;;;;;;9.98;41.42;101358.56;4956026;28;123395;-77
2022/04/19 03:58:42;;;;;;;11.27;6.80;;;;;;;9.93;40.92;101356.94;4967999;28;118618;-79
2022/04/19 04:01:12;;;;;;;13.82;7.32;;;;;;;9.91;41.18;101363.22;4960860;28;118569;-77
2022/04/19 04:03:40;;;;;;;10.52;7.20;;;;;;;9.89;40.93;101365.91;4979161;28;123721;-78
2022/04/19 04:06:07;;;;;;;12.30;6.72;;;;;;;9.88;41.12;101363.31;4969551;28;123502;-77
2022/04/19 04:08:34;;;;;;;12.85;6.93;;;;;;;9.84;41.14;101362.53;4970055;28;118980;-78
2022/04/19 04:11:01;;;;;;;14.48;7.50;;;;;;;9.82;41.40;101361.72;4962867;28;117830;-78
2022/04/19 04:13:33;;;;;;;12.70;6.95;;;;;;;9.79;40.94;101367.09;4974735;28;123262;-78
2022/04/19 04:16:00;;;;;;;10.70;6.93;;;;;;;9.76;41.36;101364.59;4976759;28;123055;-78
2022/04/19 04:18:29;;;;;;;11.55;7.05;;;;;;;9.73;41.38;101364.69;4952518;28;119560;-78
2022/04/19 04:20:56;;;;;;;10.30;6.63;;;;;;;9.70;41.31;101364.75;4954116;28;119677;-78
2022/04/19 04:23:23;;;;;;;12.10;7.35;;;;;;;9.67;41.38;101364.88;4963077;28;125426;-78
2022/04/19 04:25:52;;;;;;;13.38;7.07;;;;;;;9.65;41.52;101364.94;4955281;28;123642;-78
2022/04/19 04:28:19;;;;;;;13.32;7.45;;;;;;;9.64;41.70;101370.25;4947017;28;118886;-78
2022/04/19 04:30:49;;;;;;;12.32;6.80;;;;;;;9.62;41.73;101372.09;4950123;28;118731;-77
2022/04/19 04:33:16;;;;;;;12.68;7.15;;;;;;;9.61;41.57;101375.69;4947798;28;122908;-78
2022/04/19 04:35:43;;;;;;;11.88;7.20;;;;;;;9.60;41.58;101374.78;4949078;28;123656;-78
2022/04/19 04:38:11;;;;;;;15.38;7.32;;;;;;;9.59;41.54;101382.75;4960398;28;118751;-78
2022/04/19 04:40:40;;;;;;;16.55;7.32;;;;;;;9.55;41.68;101377.59;4954938;28;118310;-78
2022/04/19 04:43:11;;;;;;;17.95;7.10;;;;;;;9.52;41.76;101388.25;4970329;28;124323;-78
2022/04/19 04:45:39;;;;;;;13.00;6.95;;;;;;;9.48;41.68;101386.63;4957215;28;122226;-77
2022/04/19 04:50:55;;;;;;;13.95;6.68;;;;;;;9.41;41.87;101395.66;4971069;28;119451;-77
2022/04/19 04:53:22;;;;;;;13.20;6.97;;;;;;;9.39;41.91;101391.34;4950220;28;123708;-78
2022/04/19 04:56:05;;;;;;;11.73;6.63;;;;;;;9.36;42.34;101392.28;4949848;28;124717;-78
2022/04/19 04:58:32;;;;;;;15.95;7.25;;;;;;;9.35;42.29;101395.84;4953242;28;119698;-78
2022/04/19 05:00:59;;;;;;;14.40;7.20;;;;;;;9.33;41.89;101387.97;4948165;28;118963;-79
2022/04/19 05:03:27;;;;;;;12.95;7.10;;;;;;;9.32;42.22;101391.53;4972294;28;123359;-78
2022/04/19 05:05:56;;;;;;;12.52;7.47;;;;;;;9.31;42.50;101389.81;4957976;28;123622;-79
2022/04/19 05:08:24;;;;;;;13.82;7.60;;;;;;;9.32;42.60;101388.00;4959866;28;119521;-79
2022/04/19 05:10:51;;;;;;;12.88;7.88;;;;;;;9.32;42.22;101385.38;4954155;28;119733;-77
2022/04/19 05:13:21;;;;;;;13.90;7.28;;;;;;;9.34;42.49;101383.53;4954720;28;124881;-77
2022/04/19 05:15:49;;;;;;;15.15;8.45;;;;;;;9.37;42.46;101388.75;4954529;28;123823;-78
2022/04/19 05:18:18;;;;;;;16.20;8.45;;;;;;;9.41;42.60;101400.09;4952498;28;118579;-78
2022/04/19 05:20:47;;;;;;;11.98;7.30;;;;;;;9.44;42.96;101395.56;4949366;28;119154;-79
2022/04/19 05:23:14;;;;;;;17.80;9.02;;;;;;;9.47;43.00;101400.75;4957313;28;123496;-78
2022/04/19 05:25:41;;;;;;;18.35;8.35;;;;;;;9.53;43.01;101405.88;4959540;28;124411;-78
2022/04/19 05:28:09;;;;;;;14.32;8.40;;;;;;;9.57;42.91;101395.16;4963016;28;118910;-78
2022/04/19 05:30:36;;;;;;;13.10;8.23;;;;;;;9.61;42.93;101402.13;4950814;28;118014;-78
2022/04/19 05:33:03;;;;;;;15.38;8.48;;;;;;;9.68;43.12;101398.34;4972687;28;124027;-77
2022/04/19 05:35:31;;;;;;;14.38;8.02;;;;;;;9.72;43.10;101405.28;4971617;28;123072;-79
2022/04/19 05:37:59;;;;;;;15.93;7.80;;;;;;;9.78;43.12;101397.13;4940275;28;119154;-78
2022/04/19 05:40:30;;;;;;;14.25;8.25;;;;;;;9.84;43.28;101394.28;4952610;28;118228;-77
2022/04/19 05:42:57;;;;;;;19.05;8.45;;;;;;;9.91;42.88;101401.09;4956568;28;123846;-77
2022/04/19 05:45:26;;;;;;;14.73;8.02;;;;;;;9.99;43.12;101402.63;4956639;28;123408;-78
2022/04/19 05:47:53;;;;;;;15.50;8.65;;;;;;;10.07;43.24;101400.59;4967416;28;119145;-77
2022/04/19 05:50:22;;;;;;;14.82;7.70;;;;;;;10.19;43.52;101405.47;4934994;28;118743;-79
2022/04/19 05:52:49;;;;;;;13.07;8.02;;;;;;;10.30;43.43;101398.06;4951980;28;124132;-79
2022/04/19 05:55:16;;;;;;;12.05;7.28;;;;;;;10.43;43.21;101397.59;4933876;28;123913;-79
2022/04/19 05:57:43;;;;;;;13.00;7.47;;;;;;;10.55;43.34;101397.19;4954440;28;120560;-76
2022/04/19 06:00:11;;;;;;;16.20;7.80;;;;;;;10.69;43.22;101394.88;4934994;28;119266;-79
2022/04/19 06:05:31;;;;;;;14.35;7.55;;;;;;;10.96;43.02;101394.78;4959269;28;124020;-79
2022/04/19 06:07:59;;;;;;;13.35;7.88;;;;;;;11.09;43.35;101401.34;4947890;28;118409;-78
2022/04/19 06:10:26;;;;;;;16.70;8.18;;;;;;;11.22;43.16;101393.78;4974687;28;118396;-79
2022/04/19 06:12:53;;;;;;;13.45;7.75;;;;;;;11.37;43.33;101396.75;4952324;28;123856;-79
2022/04/19 06:15:21;;;;;;;16.13;8.02;;;;;;;11.52;43.50;101397.94;4957026;28;123573;-79
2022/04/19 06:17:48;;;;;;;17.20;8.20;;;;;;;11.66;43.46;101395.59;4962658;28;119398;-79
2022/04/19 06:20:38;;;;;;;15.88;7.90;;;;;;;11.83;43.33;101390.47;4951273;28;118816;-78
2022/04/19 06:23:05;;;;;;;14.52;7.65;;;;;;;11.97;43.42;101397.00;4958558;28;124374;-79
2022/04/19 06:25:32;;;;;;;14.73;8.23;;;;;;;12.12;43.23;101396.34;4951131;28;123368;-78
2022/04/19 06:27:59;;;;;;;15.55;8.43;;;;;;;12.25;43.33;101384.28;4954060;28;118838;-78
2022/04/19 06:30:33;;;;;;;15.85;8.05;;;;;;;12.41;43.41;101396.88;4951964;28;118504;-79
2022/04/19 06:33:00;;;;;;;15.65;8.35;;;;;;;12.57;43.06;101392.63;4949031;28;122993;-78
2022/04/19 06:35:28;;;;;;;13.60;7.80;;;;;;;12.73;43.25;101397.25;4947980;28;124273;-79
2022/04/19 06:37:55;;;;;;;14.32;8.02;;;;;;;12.90;43.20;101393.81;4971598;28;119188;-77
2022/04/19 06:40:22;;;;;;;13.13;7.68;;;;;;;13.08;42.97;101392.13;4955150;28;118161;-77
2022/04/19 06:42:49;;;;;;;15.10;8.40;;;;;;;13.25;43.14;101389.53;4960853;28;123031;-77
2022/04/19 06:45:19;;;;;;;14.98;7.95;;;;;;;13.43;42.92;101394.00;4958679;28;124452;-77
2022/04/19 06:47:58;;;;;;;14.95;8.00;;;;;;;13.65;42.95;101398.25;4955831;28;119395;-78
2022/04/19 06:50:27;;;;;;;13.93;7.85;;;;;;;13.89;42.88;101400.66;4952687;28;119737;-77
2022/04/19 06:53:00;;;;;;;13.85;7.30;;;;;;;14.13;42.32;101410.09;4954360;28;123635;-77
2022/04/19 06:55:59;;;;;;;14.15;7.78;;;;;;;14.41;42.03;101398.00;4943982;28;124377;-77
2022/04/19 06:58:26;;;;;;;16.98;7.65;;;;;;;14.63;41.76;101407.56;4953372;28;118572;-78
2022/04/19 07:00:54;;;;;;;17.60;7.80;;;;;;;14.86;41.75;101401.88;4972743;28;118005;-78
2022/04/19 07:03:24;;;;;;;13.15;7.10;;;;;;;15.11;41.55;101403.19;4953270;28;124192;-77
2022/04/19 07:06:22;;;;;;;12.90;7.13;;;;;;;15.40;41.05;101408.72;4966624;28;124111;-76
2022/04/19 07:08:49;;;;;;;11.75;6.97;;;;;;;15.59;40.76;101409.38;4948184;28;118837;-76
2022/04/19 07:11:17;;;;;;;12.82;6.97;;;;;;;15.81;40.59;101413.53;4950897;28;119928;-76
2022/04/19 07:13:56;;;;;;;13.77;7.07;;;;;;;16.03;40.10;101414.00;4946675;28;124099;-76
2022/04/19 07:16:51;;;;;;;12.20;6.97;;;;;;;16.22;39.94;101408.44;4948240;28;124255;-76
2022/04/19 07:19:19;;;;;;;11.88;6.90;;;;;;;16.41;39.54;101408.19;4955148;28;119714;-76
2022/04/19 07:27:35;;;;;;;12.13;7.25;;;;;;;16.95;38.63;101412.06;4949048;28;124554;-77
2022/04/19 07:30:03;;;;;;;12.43;7.03;;;;;;;17.10;38.35;101421.78;4930854;28;118530;-77
2022/04/19 07:32:30;;;;;;;12.65;6.80;;;;;;;17.24;38.21;101419.09;4968640;28;118742;-78
2022/04/19 07:35:03;;;;;;;14.15;7.43;;;;;;;17.38;37.63;101415.53;4953116;28;122822;-77
2022/04/19 07:37:30;;;;;;;12.75;7.20;;;;;;;17.51;37.43;101415.59;4949073;28;124118;-77
2022/04/19 07:39:58;;;;;;;12.57;7.22;;;;;;;17.62;37.37;101423.78;4950161;28;119935;-77
2022/04/19 07:42:25;;;;;;;11.48;6.50;;;;;;;17.74;37.12;101421.25;4955260;28;119047;-78
2022/04/19 07:44:54;;;;;;;11.07;6.43;;;;;;;17.86;36.81;101421.34;4956655;28;123332;-77
2022/04/19 07:47:21;;;;;;;11.20;5.55;;;;;;;17.98;36.30;101422.34;4952960;28;123770;-77
2022/04/19 07:49:49;;;;;;;13.13;5.95;;;;;;;18.07;36.04;101416.38;4951756;28;119460;-77
2022/04/19 07:52:17;;;;;;;10.30;5.10;;;;;;;18.18;36.26;101414.78;4935216;28;118795;-76
2022/04/19 07:54:45;;;;;;;9.88;5.18;;;;;;;18.30;36.21;101419.31;4973064;28;122460;-77
2022/04/19 07:57:12;;;;;;;9.13;4.90;;;;;;;18.43;35.16;101420.19;4957056;28;123570;-77
2022/04/19 07:59:39;;;;;;;9.43;5.00;;;;;;;18.55;35.41;101414.94;4969143;28;119033;-77
2022/04/19 08:02:07;;;;;;;9.10;4.50;;;;;;;18.65;35.09;101416.88;4972220;28;118422;-77
2022/04/19 08:04:35;;;;;;;9.52;4.40;;;;;;;18.74;34.89;101418.06;4960373;28;124725;-77
2022/04/19 08:07:03;;;;;;;9.77;4.93;;;;;;;18.82;34.55;101421.09;4971743;28;122998;-77
2022/04/19 08:09:32;;;;;;;9.40;4.50;;;;;;;18.91;34.76;101418.69;4969975;28;118461;-76
2022/04/19 08:11:59;;;;;;;8.57;4.13;;;;;;;19.03;34.34;101425.91;4977193;28;118351;-77
2022/04/19 08:14:27;;;;;;;8.13;4.45;;;;;;;19.13;34.29;101429.63;4958173;28;124046;-76
2022/04/19 08:16:54;;;;;;;8.65;4.30;;;;;;;19.20;33.81;101420.16;4958644;28;124461;-78
2022/04/19 08:19:21;;;;;;;7.90;4.25;;;;;;;19.26;33.73;101424.22;4935639;28;117925;-77
2022/04/19 08:21:50;;;;;;;9.50;4.88;;;;;;;19.33;33.51;101419.28;4956949;28;119119;-77
2022/04/19 08:24:17;;;;;;;8.10;4.32;;;;;;;19.40;33.71;101415.16;4958473;28;123817;-77
2022/04/19 08:26:45;;;;;;;9.02;4.28;;;;;;;19.45;32.69;101413.84;4955300;28;123497;-78
2022/04/19 08:29:12;;;;;;;8.68;4.47;;;;;;;19.52;33.15;101414.28;4953733;28;120494;-76
2022/04/19 08:31:40;;;;;;;8.07;3.75;;;;;;;19.59;32.97;101410.16;4978001;28;119480;-78
2022/04/19 08:34:07;;;;;;;7.10;3.60;;;;;;;19.70;33.05;101411.19;4955046;28;125476;-77
2022/04/19 08:36:40;;;;;;;6.97;3.65;;;;;;;19.81;32.82;101403.19;4961973;28;123152;-77
2022/04/19 08:39:09;;;;;;;9.02;4.15;;;;;;;19.92;32.44;101400.56;4955647;28;117016;-77
2022/04/19 08:41:37;;;;;;;7.28;3.53;;;;;;;20.01;32.27;101397.19;4953337;28;118221;-79
2022/04/19 08:44:06;;;;;;;7.88;3.97;;;;;;;20.07;31.83;101403.06;4973178;28;123428;-78
2022/04/19 08:46:37;;;;;;;6.35;3.05;;;;;;;20.13;32.28;101407.97;4970187;28;124229;-77
2022/04/19 08:49:05;;;;;;;6.85;3.58;;;;;;;20.23;32.26;101403.63;4953043;28;118048;-78
2022/04/19 08:51:35;;;;;;;6.13;3.53;;;;;;;20.36;31.89;101408.88;4956329;28;119648;-79
2022/04/19 08:59:34;;;;;;;5.45;3.10;;;;;;;20.48;30.74;101401.72;4945121;28;119804;-78
2022/04/19 09:02:01;;;;;;;8.30;3.85;;;;;;;20.49;31.15;101403.41;4946520;28;118714;-78
2022/04/19 09:04:28;;;;;;;6.85;3.45;;;;;;;20.53;31.27;101394.13;4946440;28;122867;-78
2022/04/19 09:06:58;;;;;;;6.80;3.30;;;;;;;20.61;30.79;101403.34;4945972;28;123559;-78
2022/04/19 09:09:28;;;;;;;6.85;3.67;;;;;;;20.66;30.69;101402.97;4947549;28;119422;-74
2022/04/19 09:12:10;;;;;;;6.43;3.50;;;;;;;20.70;30.87;101401.78;4961737;28;118998;-75
2022/04/19 09:14:58;;;;;;;6.60;3.92;;;;;;;20.72;30.74;101399.81;4945510;28;123687;-76
2022/04/19 09:17:36;;;;;;;5.10;3.15;;;;;;;20.75;30.65;101402.25;4949331;28;123842;-75
2022/04/19 09:20:15;;;;;;;6.47;3.38;;;;;;;20.79;30.97;101401.06;4945475;28;120155;-75
2022/04/19 09:22:43;;;;;;;5.50;3.15;;;;;;;20.85;30.52;101398.81;4947615;28;120288;-76
2022/04/19 09:25:29;;;;;;;5.95;2.90;;;;;;;20.87;30.30;101403.13;4948590;28;123905;-75
2022/04/19 09:27:57;;;;;;;6.20;3.72;;;;;;;20.93;30.45;101401.78;4945731;28;122680;-75
2022/04/19 09:30:29;;;;;;;7.35;3.53;;;;;;;20.97;29.91;101397.84;4976334;28;118221;-75
2022/04/19 09:33:05;;;;;;;7.00;4.03;;;;;;;20.95;30.15;101394.44;4947996;28;119716;-75
2022/04/19 09:35:34;;;;;;;6.70;3.63;;;;;;;20.97;30.22;101392.47;4965266;28;124135;-75
2022/04/19 09:38:03;;;;;;;6.22;3.53;;;;;;;21.01;30.08;101388.53;4952427;28;123523;-75
2022/04/19 09:40:37;;;;;;;6.50;3.10;;;;;;;21.07;30.30;101384.50;4948306;28;119310;-75
2022/04/19 09:43:16;;;;;;;5.72;2.67;;;;;;;21.15;30.09;101384.72;4950243;28;118957;-76
2022/04/19 09:46:03;;;;;;;5.53;3.30;;;;;;;21.19;29.83;101378.97;4965631;28;124447;-76
2022/04/19 09:48:32;;;;;;;6.43;3.38;;;;;;;21.26;30.19;101382.00;4935557;28;123176;-76
2022/04/19 09:51:04;;;;;;;6.20;3.47;;;;;;;21.33;29.72;101377.00;4964198;28;119658;-75
2022/04/19 09:53:45;;;;;;;7.57;3.10;;;;;;;21.37;29.46;101373.06;4950018;28;118805;-77
2022/04/19 09:56:18;;;;;;;6.55;3.55;;;;;;;21.41;29.45;101373.66;4950213;28;124125;-75
2022/04/19 09:59:07;;;;;;;6.88;3.75;;;;;;;21.41;29.36;101369.13;4961491;28;124620;-75
2022/04/19 10:09:41;;;;;;;7.53;3.60;;;;;;;21.63;29.24;101364.69;4949417;28;123239;-76
2022/04/19 10:12:11;;;;;;;5.95;3.25;;;;;;;21.65;29.28;101354.63;4949486;28;120042;-74
2022/04/19 10:14:39;;;;;;;7.57;3.30;;;;;;;21.72;29.65;101363.91;4948408;28;118361;-75
2022/04/19 10:17:06;;;;;;;7.43;3.67;;;;;;;21.80;29.43;101364.13;4948647;28;123077;-74
2022/04/19 10:19:33;;;;;;;6.70;3.58;;;;;;;21.86;29.28;101358.19;4929159;28;122938;-73
2022/04/19 10:22:06;;;;;;;6.65;3.40;;;;;;;21.95;29.33;101354.72;4951305;28;119327;-74
2022/04/19 10:24:52;;;;;;;6.60;3.30;;;;;;;21.98;28.67;101361.69;4947636;28;118565;-73
2022/04/19 10:27:19;;;;;;;7.05;3.22;;;;;;;21.94;28.33;101361.13;4933403;28;123782;-73
2022/04/19 10:29:51;;;;;;;7.22;3.75;;;;;;;21.88;28.24;101355.38;4948979;28;124282;-73
2022/04/19 10:32:33;;;;;;;7.63;3.20;;;;;;;21.84;28.55;101354.78;4933040;28;118184;-74
2022/04/19 10:35:02;;;;;;;5.63;2.95;;;;;;;21.84;28.58;101354.78;4965801;28;117966;-74
2022/04/19 10:37:29;;;;;;;6.03;2.95;;;;;;;21.90;28.62;101354.25;4951727;28;124754;-74
2022/04/19 10:39:59;;;;;;;6.18;3.38;;;;;;;22.01;28.69;101349.78;4952916;28;124441;-74
2022/04/19 10:42:36;;;;;;;7.07;3.03;;;;;;;22.09;28.63;101358.06;4960857;28;119382;-74
2022/04/19 10:45:12;;;;;;;4.80;2.70;;;;;;;22.19;28.29;101353.63;4961621;28;118552;-74
2022/04/19 10:47:51;;;;;;;4.75;2.72;;;;;;;22.26;28.48;101354.81;4962114;28;124520;-74
2022/04/19 10:50:25;;;;;;;6.28;3.03;;;;;;;22.33;28.14;101355.13;4960939;28;123835;-74
2022/04/19 10:52:57;;;;;;;5.25;2.90;;;;;;;22.35;28.20;101347.75;4956925;28;118704;-75
2022/04/19 10:55:27;;;;;;;8.30;3.22;;;;;;;22.41;28.35;101340.97;4955380;28;119524;-74
2022/04/19 10:58:06;;;;;;;5.97;3.33;;;;;;;22.47;28.35;101341.31;4958909;28;123730;-74
2022/04/19 11:00:34;;;;;;;7.22;2.78;;;;;;;22.55;28.06;101344.19;4956188;28;124089;-75
2022/04/19 11:03:52;;;;;;;7.18;3.38;;;;;;;22.63;28.04;101340.81;4948912;28;119853;-74
2022/04/19 11:06:38;;;;;;;5.65;3.05;;;;;;;22.72;28.01;101340.00;4951755;28;119182;-74
2022/04/19 11:09:06;;;;;;;;;;;;;;;22.76;28.26;101345.13;4954000;28;123379;-74
2022/04/19 11:11:47;;;;;;;6.03;3.03;;;;;;;22.79;27.75;101334.03;4963474;28;124368;-75
2022/04/19 11:14:39;;;;;;;;;;;;;;;22.79;28.41;101334.88;4947555;28;119442;-73
2022/04/19 11:17:22;;;;;;;6.38;3.10;;;;;;;22.81;27.80;101338.31;4949294;28;118255;-74
2022/04/19 11:20:05;;;;;;;7.75;3.85;;;;;;;22.82;27.48;101344.56;4946706;28;123841;-74
2022/04/19 11:22:51;;;;;;;6.43;3.22;;;;;;;22.81;27.32;101337.44;4968937;28;123005;-75
2022/04/19 11:25:36;;;;;;;4.82;2.50;;;;;;;22.81;26.92;101337.44;4952877;28;118529;-75
2022/04/19 11:28:03;;;;;;;5.57;2.90;;;;;;;22.79;26.78;101334.03;4948148;28;119164;-76
2022/04/19 11:30:30;;;;;;;6.93;3.00;;;;;;;22.78;26.93;101332.34;4969147;28;123282;-76
2022/04/19 11:32:58;;;;;;;5.80;2.58;;;;;;;22.77;26.71;101325.22;4963037;28;124057;-75
2022/04/19 11:35:28;;;;;;;5.53;2.78;;;;;;;22.79;26.88;101328.63;4970009;28;119898;-75
2022/04/19 11:37:56;;;;;;;5.53;2.78;;;;;;;22.80;26.63;101320.41;4951044;28;120091;-74
2022/04/19 11:48:48;;;;;;;5.05;2.42;;;;;;;22.89;26.79;101318.72;4950294;28;118562;-76
2022/04/19 11:51:20;;;;;;;5.82;2.92;;;;;;;22.97;26.70;101310.78;4946602;28;122981;-76
2022/04/19 11:53:50;;;;;;;7.32;3.35;;;;;;;23.04;26.52;101306.56;4947552;28;123821;-75
2022/04/19 11:56:17;;;;;;;6.05;3.22;;;;;;;23.06;26.01;101315.38;4960823;28;120153;-75
2022/04/19 11:58:50;;;;;;;4.72;2.67;;;;;;;23.06;26.67;101304.56;4952359;28;119373;-75
2022/04/19 12:01:19;;;;;;;6.35;2.85;;;;;;;23.15;26.69;101312.81;4952476;28;123911;-75
2022/04/19 12:03:47;;;;;;;7.20;3.30;;;;;;;23.21;26.64;101312.28;4952726;28;123418;-78
2022/04/19 12:06:18;;;;;;;7.65;3.25;;;;;;;23.29;26.43;101315.13;4955512;28;117558;-76
2022/04/19 12:08:49;;;;;;;5.20;2.70;;;;;;;23.39;26.39;101310.56;4979601;28;119292;-76